Time;durP1;ratioP1;P1;durP2;ratioP2;P2;SDS_P1;SDS_P2;PMS_P1;PMS_P2;Temp;Humidity;BMP_temperature;BMP_pressure;BME280_temperature;BME280_humidity;BME280_pressure;Samples;Min_cycle;Max_cycle;Signal;HPM_P1;HPM_P2
2024/01/31 00:00:06;;;;;;;0.50;0.50;;;;;;;7.17;85.21;98408.56;29395;202;63009;-58
2024/01/31 00:00:38;;;;;;;0.50;0.50;;;;;;;7.17;84.93;98400.47;29395;202;63005;-58
2024/01/31 00:01:09;;;;;;;0.50;0.50;;;;;;;7.17;85.22;98397.78;29395;324;63009;-57
2024/01/31 00:01:40;;;;;;;0.60;0.60;;;;;;;7.18;85.25;98399.44;29395;197;63005;-58
2024/01/31 00:02:11;;;;;;;0.50;0.50;;;;;;;7.19;85.12;98395.66;29395;274;63009;-57
2024/01/31 00:02:43;;;;;;;0.50;0.50;;;;;;;7.19;85.18;98401.06;29395;203;63004;-57
2024/01/31 00:03:18;;;;;;;0.50;0.50;;;;;;;7.19;85.17;98401.06;29394;354;64013;-57
2024/01/31 00:03:49;;;;;;;0.50;0.50;;;;;;;7.20;85.04;98400.00;29395;211;63004;-62
2024/01/31 00:04:22;;;;;;;0.50;0.50;;;;;;;7.20;84.97;98408.13;29394;223;64009;-57
2024/01/31 00:04:53;;;;;;;0.60;0.60;;;;;;;7.20;85.06;98402.72;29395;206;63004;-58
2024/01/31 00:05:24;;;;;;;0.50;0.50;;;;;;;7.21;85.06;98408.94;29395;251;63009;-64
2024/01/31 00:05:56;;;;;;;0.50;0.50;;;;;;;7.20;84.86;98402.72;29395;198;63005;-57
2024/01/31 00:06:28;;;;;;;0.57;0.57;;;;;;;7.22;84.89;98406.00;29395;210;63009;-57
2024/01/31 00:06:59;;;;;;;0.50;0.50;;;;;;;7.23;85.07;98402.25;29395;197;63005;-57
2024/01/31 00:07:33;;;;;;;0.52;0.52;;;;;;;7.23;85.06;98406.81;29395;202;63009;-64
2024/01/31 00:08:06;;;;;;;0.50;0.50;;;;;;;7.22;85.49;98402.47;29395;282;63005;-57
2024/01/31 00:08:38;;;;;;;0.50;0.50;;;;;;;7.22;85.13;98410.59;29394;196;64013;-57
2024/01/31 00:09:09;;;;;;;0.50;0.50;;;;;;;7.22;85.45;98403.31;29395;255;63005;-57
2024/01/31 00:09:40;;;;;;;0.60;0.60;;;;;;;7.21;85.38;98398.97;29395;220;63015;-57
2024/01/31 00:10:12;;;;;;;0.60;0.60;;;;;;;7.22;85.13;98406.00;29395;205;63004;-65
2024/01/31 00:10:45;;;;;;;0.50;0.50;;;;;;;7.21;85.31;98398.97;29395;290;63009;-58
2024/01/31 00:11:17;;;;;;;0.50;0.50;;;;;;;7.21;85.39;98404.34;29395;202;63004;-57
2024/01/31 00:11:48;;;;;;;0.50;0.50;;;;;;;7.21;85.42;98407.06;29395;205;63009;-58
2024/01/31 00:12:19;;;;;;;0.60;0.60;;;;;;;7.21;85.39;98398.97;29395;227;63004;-65
2024/01/31 00:12:52;;;;;;;0.50;0.50;;;;;;;7.19;85.08;98401.06;29395;207;63008;-58
2024/01/31 00:13:25;;;;;;;0.50;0.50;;;;;;;7.21;85.35;98398.97;29395;220;63005;-65
2024/01/31 00:13:57;;;;;;;0.60;0.60;;;;;;;7.21;85.51;98403.53;29394;219;64014;-57
2024/01/31 00:14:29;;;;;;;0.50;0.50;;;;;;;7.21;85.56;98404.34;29395;228;63005;-57
2024/01/31 00:15:00;;;;;;;0.50;0.50;;;;;;;7.21;85.78;98393.56;29395;221;63009;-57
2024/01/31 00:15:32;;;;;;;0.50;0.50;;;;;;;7.22;85.69;98405.19;29395;206;63005;-66
2024/01/31 00:16:05;;;;;;;0.50;0.50;;;;;;;7.21;85.69;98401.66;29395;247;63009;-58
2024/01/31 00:16:38;;;;;;;0.50;0.50;;;;;;;7.21;85.75;98398.97;29395;293;63005;-57
2024/01/31 00:17:13;;;;;;;0.50;0.50;;;;;;;7.21;85.44;98388.16;29395;196;63009;-58
2024/01/31 00:17:44;;;;;;;0.60;0.60;;;;;;;7.22;85.72;98389.81;29395;224;63000;-57
2024/01/31 00:18:17;;;;;;;0.93;0.93;;;;;;;7.22;85.77;98400.59;29395;203;63009;-57
2024/01/31 00:18:49;;;;;;;0.50;0.50;;;;;;;7.22;85.74;98389.81;29395;221;63004;-58
2024/01/31 00:19:23;;;;;;;0.50;0.50;;;;;;;7.22;85.59;98397.91;29394;276;64013;-57
2024/01/31 00:19:57;;;;;;;0.50;0.50;;;;;;;7.19;85.76;98382.19;29395;213;63004;-64
2024/01/31 00:20:30;;;;;;;0.60;0.60;;;;;;;7.22;85.74;98387.09;29395;216;63008;-57
2024/01/31 00:21:01;;;;;;;0.60;0.60;;;;;;;7.24;85.62;98392.28;29395;312;63005;-57
2024/01/31 00:21:32;;;;;;;0.50;0.50;;;;;;;7.23;85.80;98386.06;29395;365;63009;-57
2024/01/31 00:22:04;;;;;;;0.50;0.50;;;;;;;7.25;85.70;98388.50;29394;252;64005;-57
2024/01/31 00:22:35;;;;;;;0.50;0.50;;;;;;;7.24;85.90;98390.41;29395;200;63009;-57
2024/01/31 00:23:06;;;;;;;0.50;0.50;;;;;;;7.25;85.89;98392.03;29395;202;63005;-57
2024/01/31 00:23:37;;;;;;;0.50;0.50;;;;;;;7.26;85.81;98393.69;29395;272;63009;-57
2024/01/31 00:24:09;;;;;;;0.55;0.55;;;;;;;7.27;85.80;98394.50;29395;202;63005;-57
2024/01/31 00:24:42;;;;;;;0.60;0.60;;;;;;;7.27;85.84;98398.03;29394;300;64013;-64
2024/01/31 00:25:14;;;;;;;0.50;0.50;;;;;;;7.29;86.03;98395.88;29395;222;63004;-57
2024/01/31 00:25:46;;;;;;;0.50;0.50;;;;;;;7.30;86.10;98399.41;29395;245;63009;-57
2024/01/31 00:26:17;;;;;;;0.50;0.50;;;;;;;7.30;86.47;98392.13;29395;208;63004;-58
2024/01/31 00:26:48;;;;;;;0.50;0.50;;;;;;;7.30;86.46;98392.13;29395;203;63009;-57
2024/01/31 00:27:19;;;;;;;0.50;0.50;;;;;;;7.31;86.38;98393.78;29395;315;63004;-57
2024/01/31 00:27:51;;;;;;;0.60;0.60;;;;;;;7.31;86.28;98393.78;29395;210;63008;-58
2024/01/31 00:28:23;;;;;;;0.60;0.60;;;;;;;7.32;86.29;98389.19;29395;227;63001;-57
2024/01/31 00:28:54;;;;;;;0.50;0.50;;;;;;;7.31;86.23;98390.25;29395;272;63009;-58
2024/01/31 00:29:25;;;;;;;0.52;0.52;;;;;;;7.32;86.38;98394.59;29394;226;64009;-57
2024/01/31 00:29:57;;;;;;;0.50;0.50;;;;;;;7.30;86.25;98392.13;29395;223;63009;-57
2024/01/31 00:30:28;;;;;;;0.50;0.50;;;;;;;7.31;85.91;98392.94;29394;272;64005;-57
2024/01/31 00:30:59;;;;;;;0.50;0.50;;;;;;;7.30;85.91;98394.00;29395;218;63009;-57
2024/01/31 00:31:31;;;;;;;0.60;0.60;;;;;;;7.31;85.94;98395.66;29395;237;63005;-58
2024/01/31 00:32:03;;;;;;;0.60;0.60;;;;;;;7.30;85.92;98386.72;29395;197;63009;-58
2024/01/31 00:32:35;;;;;;;0.55;0.55;;;;;;;7.29;86.27;98393.19;29395;243;63018;-58
2024/01/31 00:33:06;;;;;;;0.60;0.60;;;;;;;7.30;86.44;98399.41;29395;243;63009;-57
2024/01/31 00:33:39;;;;;;;0.50;0.50;;;;;;;7.29;86.17;98390.47;29395;258;63004;-58
2024/01/31 00:34:10;;;;;;;0.50;0.50;;;;;;;7.29;86.30;98395.88;29395;214;63022;-57
2024/01/31 00:34:41;;;;;;;0.50;0.50;;;;;;;7.29;86.04;98395.06;29394;218;64009;-57
2024/01/31 00:35:13;;;;;;;0.60;0.60;;;;;;;7.29;86.26;98397.75;29395;202;63024;-57
2024/01/31 00:35:44;;;;;;;0.50;0.50;;;;;;;7.29;86.43;98386.97;29395;278;63005;-58
2024/01/31 00:36:16;;;;;;;0.50;0.50;;;;;;;7.28;86.28;98396.12;29395;248;63018;-58
2024/01/31 00:36:47;;;;;;;0.50;0.50;;;;;;;7.29;86.36;98395.88;29395;203;63005;-57
2024/01/31 00:37:18;;;;;;;0.50;0.50;;;;;;;7.29;86.80;98389.66;29395;204;63009;-57
2024/01/31 00:37:49;;;;;;;0.60;0.60;;;;;;;7.29;86.78;98393.19;29395;206;63005;-57
2024/01/31 00:38:20;;;;;;;0.50;0.50;;;;;;;7.29;86.84;98395.06;29395;232;63009;-57
2024/01/31 00:38:52;;;;;;;0.50;0.50;;;;;;;7.29;86.90;98395.06;29395;239;63005;-57
2024/01/31 00:39:28;;;;;;;0.60;0.60;;;;;;;7.28;86.85;98394.25;29395;267;63009;-58
2024/01/31 00:40:00;;;;;;;0.50;0.50;;;;;;;7.27;87.05;98392.63;29394;225;64009;-57
2024/01/31 00:40:32;;;;;;;0.50;0.50;;;;;;;7.26;87.06;98396.38;29395;212;63009;-57
2024/01/31 00:41:06;;;;;;;0.50;0.50;;;;;;;7.27;86.82;98392.63;29395;196;63004;-57
2024/01/31 00:41:37;;;;;;;0.50;0.50;;;;;;;7.26;86.93;98407.19;29395;308;63008;-57
2024/01/31 00:42:08;;;;;;;0.60;0.60;;;;;;;7.24;86.89;98395.78;29395;196;63010;-58
2024/01/31 00:42:41;;;;;;;0.50;0.50;;;;;;;7.25;87.14;98396.62;29395;253;63008;-57
2024/01/31 00:43:13;;;;;;;0.50;0.50;;;;;;;7.24;87.09;98393.09;29395;230;63005;-58
2024/01/31 00:43:44;;;;;;;0.50;0.50;;;;;;;7.24;87.14;98393.09;29395;223;63009;-57
2024/01/31 00:44:15;;;;;;;0.50;0.50;;;;;;;7.24;86.96;98398.50;29395;199;63005;-57
2024/01/31 00:44:46;;;;;;;0.50;0.50;;;;;;;7.24;86.89;98400.37;29395;219;63009;-64
2024/01/31 00:45:18;;;;;;;0.52;0.52;;;;;;;7.24;87.19;98401.19;29394;246;64009;-64
2024/01/31 00:45:49;;;;;;;0.60;0.60;;;;;;;7.23;87.17;98402.25;29395;218;63009;-58
2024/01/31 00:46:20;;;;;;;0.50;0.50;;;;;;;7.24;87.29;98394.97;29395;243;63005;-58
2024/01/31 00:46:52;;;;;;;0.52;0.52;;;;;;;7.25;87.24;98394.75;29395;261;63009;-58
2024/01/31 00:47:26;;;;;;;0.60;0.60;;;;;;;7.25;87.05;98405.53;29395;209;63004;-57
2024/01/31 00:47:58;;;;;;;0.50;0.50;;;;;;;7.26;87.38;98398.25;29395;196;63009;-58
2024/01/31 00:48:29;;;;;;;0.50;0.50;;;;;;;7.25;86.97;98394.75;29395;222;63014;-58
2024/01/31 00:49:04;;;;;;;0.50;0.50;;;;;;;7.25;87.36;98394.75;29395;244;63009;-57
2024/01/31 00:49:36;;;;;;;0.50;0.50;;;;;;;7.26;87.21;98396.38;29395;304;63004;-58
2024/01/31 00:50:08;;;;;;;0.50;0.50;;;;;;;7.27;87.35;98399.91;29395;270;63009;-58
2024/01/31 00:50:39;;;;;;;0.50;0.50;;;;;;;7.27;86.92;98400.72;29394;203;64009;-57
2024/01/31 00:51:12;;;;;;;0.50;0.50;;;;;;;7.26;87.16;98390.97;29395;235;63009;-57
2024/01/31 00:51:44;;;;;;;0.50;0.50;;;;;;;7.29;87.02;98400.47;29395;261;63005;-58
2024/01/31 00:52:17;;;;;;;0.57;0.57;;;;;;;7.28;87.33;98388.84;29395;218;63009;-57
2024/01/31 00:52:48;;;;;;;0.50;0.50;;;;;;;7.28;87.11;98399.63;29395;206;63009;-57
2024/01/31 00:53:19;;;;;;;0.50;0.50;;;;;;;7.29;87.45;98401.28;29395;205;63009;-58
2024/01/31 00:53:50;;;;;;;0.50;0.50;;;;;;;7.29;87.30;98395.88;29395;233;63005;-57
2024/01/31 00:54:24;;;;;;;0.60;0.60;;;;;;;7.29;87.41;98393.19;29395;269;63009;-58
2024/01/31 00:54:55;;;;;;;0.50;0.50;;;;;;;7.30;86.99;98402.94;29395;233;63004;-63
2024/01/31 00:55:27;;;;;;;0.50;0.50;;;;;;;7.30;87.11;98397.53;29395;199;63015;-64
2024/01/31 00:56:00;;;;;;;0.50;0.50;;;;;;;7.29;87.04;98403.97;29394;209;64009;-57
2024/01/31 00:56:32;;;;;;;0.50;0.50;;;;;;;7.29;87.32;98401.28;29395;219;63009;-59
2024/01/31 00:57:05;;;;;;;0.50;0.50;;;;;;;7.30;87.35;98396.72;29395;206;63004;-57
2024/01/31 00:57:36;;;;;;;0.50;0.50;;;;;;;7.29;87.35;98401.28;29395;222;63009;-65
2024/01/31 00:58:07;;;;;;;0.50;0.50;;;;;;;7.29;86.97;98395.88;29395;202;63009;-57
2024/01/31 00:58:39;;;;;;;0.50;0.50;;;;;;;7.29;87.36;98403.97;29395;215;63009;-57
2024/01/31 00:59:10;;;;;;;0.50;0.50;;;;;;;7.30;87.18;98399.41;29395;200;63005;-57
2024/01/31 00:59:42;;;;;;;0.50;0.50;;;;;;;7.29;87.40;98400.47;29395;254;63009;-58
2024/01/31 01:00:14;;;;;;;0.50;0.50;;;;;;;7.30;87.04;98400.22;29395;253;63016;-58
2024/01/31 01:00:49;;;;;;;0.60;0.60;;;;;;;7.30;87.15;98397.53;29394;275;64013;-64
2024/01/31 01:01:20;;;;;;;0.60;0.60;;;;;;;7.30;87.08;98397.53;29395;216;63005;-57
2024/01/31 01:01:51;;;;;;;0.50;0.50;;;;;;;7.29;87.19;98395.88;29395;198;63009;-57
2024/01/31 01:02:23;;;;;;;0.60;0.60;;;;;;;7.30;87.02;98397.53;29395;224;63004;-58
2024/01/31 01:02:56;;;;;;;0.50;0.50;;;;;;;7.30;87.25;98402.09;29395;216;63009;-58
2024/01/31 01:03:28;;;;;;;0.60;0.60;;;;;;;7.29;86.89;98412.09;29395;310;63004;-57
2024/01/31 01:03:59;;;;;;;0.50;0.50;;;;;;;7.29;87.42;98403.97;29395;225;63009;-64
2024/01/31 01:04:30;;;;;;;0.50;0.50;;;;;;;7.27;86.99;98406.13;29395;199;63004;-57
2024/01/31 01:05:03;;;;;;;0.50;0.50;;;;;;;7.28;87.14;98398.81;29395;214;63009;-64
2024/01/31 01:05:34;;;;;;;0.50;0.50;;;;;;;7.27;87.00;98408.81;29395;199;63005;-57
2024/01/31 01:06:08;;;;;;;0.60;0.60;;;;;;;7.26;87.20;98407.19;29394;205;64014;-58
2024/01/31 01:06:42;;;;;;;0.60;0.60;;;;;;;7.26;87.04;98406.34;29395;209;63005;-57
2024/01/31 01:07:13;;;;;;;0.50;0.50;;;;;;;7.26;87.37;98407.19;29395;218;63009;-57
2024/01/31 01:07:45;;;;;;;0.57;0.57;;;;;;;7.25;86.97;98405.53;29395;282;63005;-57
2024/01/31 01:08:17;;;;;;;0.50;0.50;;;;;;;7.25;87.18;98400.13;29395;229;63009;-65
2024/01/31 01:08:48;;;;;;;0.50;0.50;;;;;;;7.25;87.01;98407.41;29395;267;63005;-58
2024/01/31 01:09:20;;;;;;;0.50;0.50;;;;;;;7.25;87.25;98408.25;29395;244;63009;-57
2024/01/31 01:09:54;;;;;;;0.50;0.50;;;;;;;7.25;86.80;98402.84;29395;317;63004;-57
2024/01/31 01:10:25;;;;;;;0.50;0.50;;;;;;;7.26;87.03;98409.06;29395;372;63009;-57
2024/01/31 01:10:57;;;;;;;0.50;0.50;;;;;;;7.26;86.75;98404.47;29395;232;63004;-57
2024/01/31 01:11:29;;;;;;;0.50;0.50;;;;;;;7.26;86.60;98396.38;29394;202;64013;-64
2024/01/31 01:12:03;;;;;;;0.50;0.50;;;;;;;7.28;86.56;98399.63;29394;237;64008;-57
2024/01/31 01:12:34;;;;;;;0.57;0.57;;;;;;;7.27;86.51;98406.13;29395;202;63009;-57
2024/01/31 01:13:07;;;;;;;0.52;0.52;;;;;;;7.27;86.66;98408.81;29394;208;64009;-59
2024/01/31 01:13:38;;;;;;;0.50;0.50;;;;;;;7.26;86.72;98407.19;29395;245;63009;-57
2024/01/31 01:14:10;;;;;;;0.50;0.50;;;;;;;7.27;86.34;98400.72;29395;224;63012;-57
2024/01/31 01:14:41;;;;;;;0.60;0.60;;;;;;;7.26;86.68;98399.09;29395;202;63009;-58
2024/01/31 01:15:16;;;;;;;0.50;0.50;;;;;;;7.26;86.29;98409.88;29395;203;63005;-57
2024/01/31 01:15:47;;;;;;;0.50;0.50;;;;;;;7.26;86.22;98407.19;29395;259;63009;-58
2024/01/31 01:16:18;;;;;;;0.50;0.50;;;;;;;7.26;86.33;98407.19;29395;204;63011;-64
2024/01/31 01:16:49;;;;;;;0.50;0.50;;;;;;;7.25;86.51;98405.53;29395;210;63009;-58
2024/01/31 01:17:24;;;;;;;0.60;0.60;;;;;;;7.26;86.35;98406.34;29395;254;63004;-58
2024/01/31 01:17:55;;;;;;;0.50;0.50;;;;;;;7.26;86.34;98401.78;29395;210;63016;-65
2024/01/31 01:18:26;;;;;;;0.50;0.50;;;;;;;7.25;86.53;98402.84;29394;215;64009;-57
2024/01/31 01:19:01;;;;;;;0.50;0.50;;;;;;;7.25;86.46;98413.63;29394;314;64013;-57
2024/01/31 01:19:32;;;;;;;0.50;0.50;;;;;;;7.25;86.36;98405.53;29395;217;63004;-62
2024/01/31 01:20:06;;;;;;;0.50;0.50;;;;;;;7.25;86.50;98404.72;29395;218;63009;-57
2024/01/31 01:20:37;;;;;;;0.50;0.50;;;;;;;7.24;86.29;98409.28;29395;241;63005;-57
2024/01/31 01:21:09;;;;;;;0.50;0.50;;;;;;;7.23;86.41;98407.66;29395;203;63009;-58
2024/01/31 01:21:40;;;;;;;0.60;0.60;;;;;;;7.23;86.25;98402.25;29395;260;63005;-58
2024/01/31 01:22:11;;;;;;;0.52;0.52;;;;;;;7.23;86.18;98410.34;29395;225;63009;-64
2024/01/31 01:22:43;;;;;;;0.50;0.50;;;;;;;7.22;86.16;98400.59;29395;210;63015;-57
2024/01/31 01:23:15;;;;;;;0.50;0.50;;;;;;;7.22;86.55;98411.41;29395;210;63009;-57
2024/01/31 01:23:47;;;;;;;0.60;0.60;;;;;;;7.23;86.47;98407.66;29395;197;63005;-57
2024/01/31 01:24:20;;;;;;;0.55;0.55;;;;;;;7.22;86.70;98411.41;29394;238;64013;-58
2024/01/31 01:24:52;;;;;;;0.50;0.50;;;;;;;7.21;86.55;98404.34;29395;259;63004;-58
2024/01/31 01:25:23;;;;;;;0.50;0.50;;;;;;;7.21;86.31;98403.53;29395;230;63009;-57
2024/01/31 01:25:54;;;;;;;0.50;0.50;;;;;;;7.20;86.25;98405.41;29395;243;63004;-56
2024/01/31 01:26:26;;;;;;;0.50;0.50;;;;;;;7.20;86.54;98413.50;29395;237;63004;-64
2024/01/31 01:26:57;;;;;;;0.60;0.60;;;;;;;7.20;86.16;98416.22;29395;204;63004;-57
2024/01/31 01:27:28;;;;;;;0.60;0.60;;;;;;;7.21;86.34;98412.47;29395;208;63008;-57
2024/01/31 01:27:59;;;;;;;0.50;0.50;;;;;;;7.22;86.14;98405.19;29395;253;63005;-56
2024/01/31 01:28:31;;;;;;;0.60;0.60;;;;;;;7.22;86.26;98411.41;29395;215;63009;-57
2024/01/31 01:29:02;;;;;;;0.50;0.50;;;;;;;7.22;85.86;98406.00;29395;204;63005;-57
2024/01/31 01:29:41;;;;;;;0.50;0.50;;;;;;;7.23;85.78;98407.66;29394;203;64013;-57
2024/01/31 01:30:13;;;;;;;0.50;0.50;;;;;;;7.23;85.70;98413.06;29395;282;63005;-57
2024/01/31 01:30:44;;;;;;;0.50;0.50;;;;;;;7.24;85.79;98420.09;29395;280;63009;-58
2024/01/31 01:31:15;;;;;;;0.50;0.50;;;;;;;7.24;85.57;98412.00;29395;237;63004;-58
2024/01/31 01:31:46;;;;;;;0.50;0.50;;;;;;;7.25;85.74;98413.63;29395;217;63009;-58
2024/01/31 01:32:18;;;;;;;0.50;0.50;;;;;;;7.26;85.70;98409.88;29395;203;63004;-57
2024/01/31 01:32:49;;;;;;;0.57;0.57;;;;;;;7.25;85.62;98410.94;29395;210;63009;-58
2024/01/31 01:33:23;;;;;;;0.60;0.60;;;;;;;7.28;85.22;98412.31;29395;202;63004;-57
2024/01/31 01:34:01;;;;;;;0.50;0.50;;;;;;;7.28;85.45;98407.75;29394;392;64013;-57
2024/01/31 01:34:33;;;;;;;0.60;0.60;;;;;;;7.27;85.09;98411.53;29395;196;63004;-57
2024/01/31 01:35:05;;;;;;;0.60;0.60;;;;;;;7.27;85.38;98414.22;29395;251;63008;-57
2024/01/31 01:35:36;;;;;;;0.50;0.50;;;;;;;7.26;85.03;98409.88;29395;298;63005;-67
2024/01/31 01:36:07;;;;;;;0.60;0.60;;;;;;;7.27;85.32;98414.22;29395;312;63009;-57
2024/01/31 01:36:39;;;;;;;0.60;0.60;;;;;;;7.27;85.03;98413.41;29395;225;63005;-57
2024/01/31 01:37:10;;;;;;;0.50;0.50;;;;;;;7.26;85.32;98412.59;29395;218;63009;-57
2024/01/31 01:37:41;;;;;;;0.50;0.50;;;;;;;7.27;85.08;98414.22;29395;224;63005;-57
2024/01/31 01:38:12;;;;;;;0.50;0.50;;;;;;;7.28;85.17;98410.44;29395;209;63009;-56
2024/01/31 01:38:44;;;;;;;0.60;0.60;;;;;;;7.28;84.95;98409.63;29395;226;63004;-57
2024/01/31 01:39:17;;;;;;;0.50;0.50;;;;;;;7.29;84.87;98405.84;29394;254;64013;-57
2024/01/31 01:39:51;;;;;;;0.50;0.50;;;;;;;7.30;84.76;98402.94;29395;261;63004;-57
2024/01/31 01:40:22;;;;;;;0.50;0.50;;;;;;;7.30;85.09;98408.31;29395;220;63009;-57
2024/01/31 01:40:54;;;;;;;0.50;0.50;;;;;;;7.31;84.73;98401.06;29395;225;63004;-58
2024/01/31 01:41:25;;;;;;;0.60;0.60;;;;;;;7.31;84.69;98404.56;29395;226;63008;-64
2024/01/31 01:41:56;;;;;;;0.60;0.60;;;;;;;7.31;84.57;98401.88;29395;218;63005;-57
2024/01/31 01:42:27;;;;;;;0.50;0.50;;;;;;;7.31;84.62;98401.88;29395;205;63009;-63
2024/01/31 01:42:59;;;;;;;0.50;0.50;;;;;;;7.31;84.63;98407.28;29394;220;64009;-57
2024/01/31 01:43:30;;;;;;;0.50;0.50;;;;;;;7.32;84.64;98398.13;29395;245;63009;-57
2024/01/31 01:44:02;;;;;;;0.50;0.50;;;;;;;7.32;84.60;98395.41;29395;248;63005;-57
2024/01/31 01:44:34;;;;;;;0.60;0.60;;;;;;;7.33;84.85;98399.75;29395;202;63009;-57
2024/01/31 01:45:06;;;;;;;0.50;0.50;;;;;;;7.32;84.71;98400.81;29394;224;64009;-56
2024/01/31 01:45:37;;;;;;;0.60;0.60;;;;;;;7.32;84.84;98403.53;29395;233;63009;-57
2024/01/31 01:46:18;;;;;;;0.50;0.50;;;;;;;7.33;84.46;98402.47;29395;226;63004;-57
2024/01/31 01:46:50;;;;;;;0.60;0.60;;;;;;;7.34;84.69;98406.81;29439;227;63009;-58
2024/01/31 01:47:24;;;;;;;0.50;0.50;;;;;;;7.34;84.39;98409.50;29395;212;63015;-56
2024/01/31 01:47:55;;;;;;;0.50;0.50;;;;;;;7.35;84.35;98402.22;29395;251;63009;-57
2024/01/31 01:48:26;;;;;;;0.50;0.50;;;;;;;7.36;84.31;98407.41;29395;203;63004;-58
2024/01/31 01:48:58;;;;;;;0.60;0.60;;;;;;;7.36;84.52;98404.69;29395;203;63008;-57
2024/01/31 01:49:32;;;;;;;0.50;0.50;;;;;;;7.36;84.21;98402.00;29395;211;63005;-57
2024/01/31 01:50:04;;;;;;;0.50;0.50;;;;;;;7.37;84.36;98402.81;29395;249;63009;-57
2024/01/31 01:50:36;;;;;;;0.60;0.60;;;;;;;7.36;84.07;98402.00;29394;220;64009;-57
2024/01/31 01:51:09;;;;;;;0.60;0.60;;;;;;;7.32;84.04;98400.81;29395;387;63016;-57
2024/01/31 01:51:44;;;;;;;0.50;0.50;;;;;;;7.34;84.24;98401.41;29395;243;63005;-57
2024/01/31 01:52:16;;;;;;;0.50;0.50;;;;;;;7.35;84.41;98400.34;29395;293;63009;-58
2024/01/31 01:52:48;;;;;;;0.50;0.50;;;;;;;7.33;84.42;98399.75;29395;235;63005;-57
2024/01/31 01:53:19;;;;;;;0.50;0.50;;;;;;;7.32;84.54;98400.81;29395;227;63009;-56
2024/01/31 01:53:51;;;;;;;0.50;0.50;;;;;;;7.33;84.24;98401.63;29395;231;63010;-58
2024/01/31 01:54:23;;;;;;;0.50;0.50;;;;;;;7.33;84.55;98397.06;29395;208;63009;-57
2024/01/31 01:54:54;;;;;;;0.50;0.50;;;;;;;7.34;84.41;98393.31;29395;235;63004;-57
2024/01/31 01:55:26;;;;;;;0.60;0.60;;;;;;;7.35;84.53;98403.06;29395;262;63009;-57
2024/01/31 01:56:04;;;;;;;0.50;0.50;;;;;;;7.35;84.35;98396.81;29394;199;64009;-57
2024/01/31 01:56:39;;;;;;;0.50;0.50;;;;;;;7.36;84.31;98401.16;29395;224;63008;-57
2024/01/31 01:57:10;;;;;;;0.50;0.50;;;;;;;7.35;84.00;98400.34;29395;227;63010;-62
2024/01/31 01:57:42;;;;;;;0.50;0.50;;;;;;;7.36;84.15;98395.78;29395;345;63009;-66
2024/01/31 01:58:14;;;;;;;0.60;0.60;;;;;;;7.36;84.09;98399.28;29395;295;63009;-57
2024/01/31 01:58:48;;;;;;;0.50;0.50;;;;;;;7.38;84.31;98399.06;29395;263;63009;-63
2024/01/31 01:59:20;;;;;;;0.60;0.60;;;;;;;7.36;84.01;98402.00;29395;204;63005;-64
2024/01/31 01:59:52;;;;;;;0.50;0.50;;;;;;;7.37;84.02;98397.41;29395;360;63009;-57
2024/01/31 02:00:25;;;;;;;0.57;0.57;;;;;;;7.36;84.08;98395.78;29395;305;63017;-57
2024/01/31 02:12:34;;;;;;;0.57;0.57;;;;;;;7.39;86.84;98398.00;88122;216;64004;-55
2024/01/31 02:13:05;;;;;;;0.50;0.50;;;;;;;7.38;86.58;98393.66;29394;278;64009;-56
2024/01/31 02:13:36;;;;;;;0.60;0.60;;;;;;;7.38;86.39;98394.47;29395;357;63015;-56
2024/01/31 02:14:08;;;;;;;0.60;0.60;;;;;;;7.37;86.47;98390.13;29395;303;63009;-56
2024/01/31 02:14:44;;;;;;;0.60;0.60;;;;;;;7.38;86.03;98388.25;29395;217;63005;-57
2024/01/31 02:15:16;;;;;;;0.60;0.60;;;;;;;7.38;86.33;98388.25;29395;218;63009;-57
2024/01/31 02:15:55;;;;;;;0.50;0.50;;;;;;;7.37;85.89;98392.84;29395;233;63005;-56
2024/01/31 02:16:28;;;;;;;0.60;0.60;;;;;;;7.38;85.65;98390.97;29395;224;63009;-58
2024/01/31 02:16:59;;;;;;;0.60;0.60;;;;;;;7.38;85.42;98385.56;29395;313;63004;-57
2024/01/31 02:17:33;;;;;;;0.60;0.60;;;;;;;7.38;84.60;98377.47;29395;245;63009;-57
2024/01/31 02:18:05;;;;;;;0.50;0.50;;;;;;;7.39;84.86;98379.09;29395;275;63010;-57
2024/01/31 02:18:38;;;;;;;0.50;0.50;;;;;;;7.38;84.59;98380.97;29394;228;64013;-56
2024/01/31 02:19:10;;;;;;;0.50;0.50;;;;;;;7.39;84.46;98379.91;29395;347;63004;-58
2024/01/31 02:19:41;;;;;;;0.50;0.50;;;;;;;7.39;84.53;98377.22;29395;319;63008;-57
2024/01/31 02:20:15;;;;;;;0.50;0.50;;;;;;;7.39;84.01;98374.53;29395;214;63010;-57
2024/01/31 02:20:47;;;;;;;0.50;0.50;;;;;;;7.39;84.36;98379.91;29395;214;63009;-56
2024/01/31 02:21:19;;;;;;;0.50;0.50;;;;;;;7.39;84.14;98379.91;29395;204;63005;-57
2024/01/31 02:21:57;;;;;;;1.27;1.27;;;;;;;7.39;84.11;98377.22;29395;303;63009;-63
2024/01/31 02:22:31;;;;;;;0.50;0.50;;;;;;;7.40;84.36;98365.38;29395;211;63005;-57
2024/01/31 02:23:04;;;;;;;0.50;0.50;;;;;;;7.40;83.85;98378.88;29395;236;63009;-56
2024/01/31 02:23:35;;;;;;;0.50;0.50;;;;;;;7.42;83.98;98377.81;29395;249;63005;-57
2024/01/31 02:24:07;;;;;;;0.50;0.50;;;;;;;7.42;84.02;98372.41;29394;209;64013;-57
2024/01/31 02:24:39;;;;;;;0.50;0.50;;;;;;;7.42;83.99;98375.09;29395;211;63017;-57
2024/01/31 02:25:14;;;;;;;0.60;0.60;;;;;;;7.43;83.89;98371.34;29395;202;63009;-57
2024/01/31 02:25:45;;;;;;;0.50;0.50;;;;;;;7.43;83.60;98380.28;29395;209;63004;-57
2024/01/31 02:26:18;;;;;;;0.50;0.50;;;;;;;7.43;83.93;98380.28;29395;241;63015;-57
2024/01/31 02:26:53;;;;;;;0.50;0.50;;;;;;;7.43;83.87;98371.34;29394;214;64008;-57
2024/01/31 02:27:24;;;;;;;0.52;0.52;;;;;;;7.44;83.95;98381.09;29395;245;63009;-57
2024/01/31 02:27:56;;;;;;;0.50;0.50;;;;;;;7.43;83.78;98380.28;29395;285;63005;-57
2024/01/31 02:28:28;;;;;;;0.50;0.50;;;;;;;7.44;83.86;98375.69;29395;278;63009;-57
2024/01/31 02:28:59;;;;;;;0.52;0.52;;;;;;;7.44;83.62;98375.69;29395;206;63011;-57
2024/01/31 02:29:30;;;;;;;0.50;0.50;;;;;;;7.44;83.92;98371.13;29395;239;63009;-57
2024/01/31 02:30:01;;;;;;;0.50;0.50;;;;;;;7.45;83.58;98374.62;29394;214;64005;-58
2024/01/31 02:30:32;;;;;;;0.50;0.50;;;;;;;7.45;83.88;98377.34;29395;197;63013;-57
2024/01/31 02:31:03;;;;;;;0.50;0.50;;;;;;;7.46;83.51;98373.59;29395;197;63005;-57
2024/01/31 02:31:35;;;;;;;0.50;0.50;;;;;;;7.48;83.87;98374.16;29395;225;63009;-57
2024/01/31 02:32:07;;;;;;;0.50;0.50;;;;;;;7.47;83.87;98375.22;29394;249;64009;-57
2024/01/31 02:32:38;;;;;;;0.50;0.50;;;;;;;7.48;83.92;98371.47;29395;258;63009;-57
2024/01/31 02:33:12;;;;;;;0.50;0.50;;;;;;;7.48;83.52;98374.16;29395;263;63004;-57
2024/01/31 02:33:44;;;;;;;0.60;0.60;;;;;;;7.47;83.83;98373.34;29395;233;63009;-56
2024/01/31 02:34:15;;;;;;;0.50;0.50;;;;;;;7.48;83.85;98371.47;29395;220;63004;-57
2024/01/31 02:34:46;;;;;;;0.50;0.50;;;;;;;7.47;83.72;98373.34;29395;224;63008;-57
2024/01/31 02:35:17;;;;;;;0.60;0.60;;;;;;;7.47;83.55;98372.53;29395;226;63005;-57
2024/01/31 02:35:48;;;;;;;0.50;0.50;;;;;;;7.47;83.82;98365.25;29395;268;63009;-57
2024/01/31 02:36:20;;;;;;;0.50;0.50;;;;;;;7.47;83.71;98369.81;29395;228;63005;-57
2024/01/31 02:36:51;;;;;;;0.50;0.50;;;;;;;7.46;83.73;98369.00;29395;234;63009;-57
2024/01/31 02:37:24;;;;;;;0.50;0.50;;;;;;;7.46;83.57;98362.78;29394;202;64009;-57
2024/01/31 02:37:57;;;;;;;0.50;0.50;;;;;;;7.46;83.95;98360.06;29395;356;63009;-58
2024/01/31 02:38:28;;;;;;;0.50;0.50;;;;;;;7.46;83.79;98363.59;29395;196;63005;-57
2024/01/31 02:39:08;;;;;;;0.57;0.57;;;;;;;7.46;83.33;98357.38;29394;202;64013;-57
2024/01/31 02:39:39;;;;;;;0.50;0.50;;;;;;;7.47;83.54;98369.81;29395;206;63004;-57
2024/01/31 02:40:12;;;;;;;0.50;0.50;;;;;;;7.46;83.78;98362.78;29395;274;63018;-57
2024/01/31 02:40:43;;;;;;;0.60;0.60;;;;;;;7.46;83.89;98358.19;29395;243;63004;-58
2024/01/31 02:41:15;;;;;;;0.50;0.50;;;;;;;7.45;83.93;98361.97;29395;276;63009;-57
2024/01/31 02:41:46;;;;;;;0.50;0.50;;;;;;;7.46;83.61;98365.47;29395;237;63004;-57
2024/01/31 02:42:18;;;;;;;0.50;0.50;;;;;;;7.46;83.98;98365.47;29395;234;63008;-57
2024/01/31 02:42:50;;;;;;;0.50;0.50;;;;;;;7.45;83.88;98369.25;29395;237;63005;-57
2024/01/31 02:43:21;;;;;;;0.50;0.50;;;;;;;7.45;83.92;98370.06;29395;216;63009;-57
2024/01/31 02:43:53;;;;;;;0.50;0.50;;;;;;;7.43;83.92;98369.47;29395;205;63005;-58
2024/01/31 02:44:25;;;;;;;0.50;0.50;;;;;;;7.45;83.97;98371.94;29394;203;64013;-63
2024/01/31 02:44:56;;;;;;;0.50;0.50;;;;;;;7.44;83.79;98371.13;29395;204;63005;-57
2024/01/31 02:45:27;;;;;;;0.50;0.50;;;;;;;7.44;83.98;98365.72;29395;211;63009;-58
2024/01/31 02:45:59;;;;;;;0.50;0.50;;;;;;;7.45;84.10;98366.53;29394;252;64009;-56
2024/01/31 02:46:33;;;;;;;0.60;0.60;;;;;;;7.44;84.29;98368.41;29394;223;64013;-57